Time,TemperatureF,DewpointF,PressureIn,WindDirection,WindDirectionDegrees,WindSpeedMPH,WindSpeedGustMPH,Humidity,HourlyPrecipIn,Conditions,Clouds,dailyrainin,SoftwareType,DateUTC
2013-02-01 00:08:00,27.9,10.0,29.42,NNE,24,0.0,10.0,48,0.00,,,0.00,weatherlink.com 1.10,2013-02-01 05:08:00,
2013-02-01 00:23:00,28.0,11.0,29.43,ENE,57,0.0,8.0,49,0.00,,,0.00,weatherlink.com 1.10,2013-02-01 05:23:00,
2013-02-01 00:38:00,27.5,15.0,29.43,North,11,0.0,2.0,60,0.00,,,0.00,weatherlink.com 1.10,2013-02-01 05:38:00,
2013-02-01 00:53:00,27.6,13.0,29.43,NNW,340,0.0,5.0,55,0.00,,,0.00,weatherlink.com 1.10,2013-02-01 05:53:00,
2013-02-01 01:09:00,26.7,17.0,29.44,NNW,336,0.0,8.0,67,0.00,,,0.00,weatherlink.com 1.10,2013-02-01 06:09:00,
2013-02-01 01:24:00,26.0,18.0,29.45,NNW,337,2.0,6.0,72,0.00,,,0.00,weatherlink.com 1.10,2013-02-01 06:24:00,
2013-02-01 01:39:00,25.4,19.0,29.45,North,360,2.0,7.0,78,0.00,,,0.00,weatherlink.com 1.10,2013-02-01 06:39:00,
2013-02-01 01:54:00,24.5,19.0,29.46,North,5,4.0,7.0,81,0.00,,,0.00,weatherlink.com 1.10,2013-02-01 06:54:00,
2013-02-01 02:24:00,24.1,19.0,29.47,NNW,335,3.0,9.0,79,0.00,,,0.00,weatherlink.com 1.10,2013-02-01 07:24:00,
2013-02-01 02:39:00,24.4,17.0,29.47,West,273,0.0,10.0,73,0.00,,,0.00,weatherlink.com 1.10,2013-02-01 07:39:00,
2013-02-01 02:54:00,24.4,16.0,29.48,ESE,107,1.0,9.0,70,0.00,,,0.00,weatherlink.com 1.10,2013-02-01 07:54:00,
2013-02-01 03:09:00,24.4,15.0,29.48,NW,319,0.0,10.0,68,0.00,,,0.00,weatherlink.com 1.10,2013-02-01 08:09:00,
2013-02-01 03:24:00,24.1,15.0,29.48,NE,54,2.0,11.0,67,0.00,,,0.00,weatherlink.com 1.10,2013-02-01 08:24:00,
2013-02-01 03:39:00,24.2,15.0,29.48,NNE,28,0.0,7.0,68,0.00,,,0.00,weatherlink.com 1.10,2013-02-01 08:39:00,
2013-02-01 03:54:00,23.9,15.0,29.48,WNW,286,0.0,7.0,68,0.00,,,0.00,weatherlink.com 1.10,2013-02-01 08:54:00,
2013-02-01 04:09:00,23.7,15.0,29.49,WSW,245,10.0,11.0,70,0.00,,,0.00,weatherlink.com 1.10,2013-02-01 09:09:00,
2013-02-01 04:24:00,23.4,15.0,29.50,NE,53,5.0,6.0,70,0.00,,,0.00,weatherlink.com 1.10,2013-02-01 09:24:00,
2013-02-01 04:39:00,23.6,14.0,29.50,NNW,345,3.0,16.0,68,0.00,,,0.00,weatherlink.com 1.10,2013-02-01 09:39:00,
2013-02-01 04:54:00,23.4,14.0,29.51,NNE,28,0.0,15.0,68,0.00,,,0.00,weatherlink.com 1.10,2013-02-01 09:54:00,
2013-02-01 05:09:00,23.2,14.0,29.51,South,182,4.0,8.0,69,0.00,,,0.00,weatherlink.com 1.10,2013-02-01 10:09:00,
2013-02-01 05:24:00,23.0,16.0,29.52,SSW,198,0.0,5.0,75,0.00,,,0.00,weatherlink.com 1.10,2013-02-01 10:24:00,
2013-02-01 05:39:00,22.5,17.0,29.52,SSW,200,3.0,6.0,79,0.00,,,0.00,weatherlink.com 1.10,2013-02-01 10:39:00,
2013-02-01 05:54:00,22.4,17.0,29.53,SW,223,0.0,7.0,80,0.00,,,0.00,weatherlink.com 1.10,2013-02-01 10:54:00,
2013-02-01 06:09:00,22.4,17.0,29.53,NNW,329,0.0,7.0,78,0.00,,,0.00,weatherlink.com 1.10,2013-02-01 11:09:00,
2013-02-01 06:24:00,22.5,15.0,29.54,West,265,0.0,7.0,73,0.00,,,0.00,weatherlink.com 1.10,2013-02-01 11:24:00,
2013-02-01 06:39:00,22.2,14.0,29.55,SSW,211,2.0,6.0,72,0.00,,,0.00,weatherlink.com 1.10,2013-02-01 11:39:00,
2013-02-01 06:54:00,22.0,14.0,29.55,SSW,192,1.0,5.0,70,0.00,,,0.00,weatherlink.com 1.10,2013-02-01 11:54:00,
2013-02-01 07:09:00,22.1,13.0,29.56,SSW,195,0.0,9.0,69,0.00,,,0.00,weatherlink.com 1.10,2013-02-01 12:09:00,
2013-02-01 07:24:00,22.0,14.0,29.57,SSW,205,2.0,11.0,70,0.00,,,0.00,weatherlink.com 1.10,2013-02-01 12:24:00,
2013-02-01 07:39:00,22.1,14.0,29.58,SW,228,0.0,7.0,70,0.00,,,0.00,weatherlink.com 1.10,2013-02-01 12:39:00,
2013-02-01 07:54:00,22.8,14.0,29.59,SSW,200,3.0,9.0,69,0.00,,,0.00,weatherlink.com 1.10,2013-02-01 12:54:00,
2013-02-01 08:09:00,23.7,14.0,29.60,SSW,192,0.0,9.0,67,0.00,,,0.00,weatherlink.com 1.10,2013-02-01 13:09:00,
2013-02-01 08:24:00,25.0,14.0,29.61,NNE,13,2.0,10.0,62,0.00,,,0.00,weatherlink.com 1.10,2013-02-01 13:24:00,
2013-02-01 08:40:00,25.2,12.0,29.62,NE,50,5.0,16.0,58,0.00,,,0.00,weatherlink.com 1.10,2013-02-01 13:40:00,
2013-02-01 08:55:00,24.7,11.0,29.63,NNW,340,9.0,18.0,56,0.00,,,0.00,weatherlink.com 1.10,2013-02-01 13:55:00,
2013-02-01 09:10:00,24.6,11.0,29.63,NNE,24,2.0,16.0,57,0.00,,,0.00,weatherlink.com 1.10,2013-02-01 14:10:00,
2013-02-01 09:25:00,25.3,12.0,29.64,NW,317,0.0,10.0,57,0.00,,,0.00,weatherlink.com 1.10,2013-02-01 14:25:00,
2013-02-01 09:40:00,25.3,12.0,29.65,NW,315,2.0,10.0,57,0.00,,,0.00,weatherlink.com 1.10,2013-02-01 14:40:00,
2013-02-01 09:55:00,25.4,13.0,29.65,NW,308,0.0,8.0,59,0.00,,,0.00,weatherlink.com 1.10,2013-02-01 14:55:00,
2013-02-01 10:13:00,26.0,13.0,29.66,NNW,332,1.0,7.0,58,0.00,,,0.00,weatherlink.com 1.10,2013-02-01 15:13:00,
2013-02-01 10:25:00,25.6,13.0,29.68,North,360,0.0,9.0,58,0.00,,,0.00,weatherlink.com 1.10,2013-02-01 15:25:00,
2013-02-01 10:40:00,25.1,14.0,29.69,NE,39,1.0,13.0,63,0.00,,,0.00,weatherlink.com 1.10,2013-02-01 15:40:00,
2013-02-01 10:55:00,26.0,15.0,29.69,North,355,4.0,11.0,63,0.00,,,0.00,weatherlink.com 1.10,2013-02-01 15:55:00,
2013-02-01 11:10:00,26.5,14.0,29.70,North,355,10.0,15.0,60,0.00,,,0.00,weatherlink.com 1.10,2013-02-01 16:10:00,
2013-02-01 11:25:00,26.5,14.0,29.70,NNE,16,7.0,12.0,59,0.00,,,0.00,weatherlink.com 1.10,2013-02-01 16:25:00,
2013-02-01 11:40:00,25.1,14.0,29.70,NNW,333,6.0,15.0,64,0.00,,,0.00,weatherlink.com 1.10,2013-02-01 16:40:00,
2013-02-01 11:55:00,24.3,12.0,29.70,North,5,4.0,10.0,61,0.00,,,0.00,weatherlink.com 1.10,2013-02-01 16:55:00,
2013-02-01 12:10:00,25.6,13.0,29.70,WSW,257,0.0,10.0,59,0.00,,,0.00,weatherlink.com 1.10,2013-02-01 17:10:00,
2013-02-01 12:25:00,27.1,12.0,29.69,NNW,334,5.0,11.0,54,0.00,,,0.00,weatherlink.com 1.10,2013-02-01 17:25:00,
2013-02-01 12:40:00,27.5,11.0,29.68,NNW,338,7.0,15.0,51,0.00,,,0.00,weatherlink.com 1.10,2013-02-01 17:40:00,
2013-02-01 12:55:00,26.7,11.0,29.68,NE,51,6.0,11.0,51,0.00,,,0.00,weatherlink.com 1.10,2013-02-01 17:55:00,
2013-02-01 13:10:00,27.2,11.0,29.68,NNW,331,3.0,7.0,51,0.00,,,0.00,weatherlink.com 1.10,2013-02-01 18:10:00,
2013-02-01 13:25:00,27.8,13.0,29.68,NNE,24,1.0,16.0,53,0.00,,,0.00,weatherlink.com 1.10,2013-02-01 18:25:00,
2013-02-01 13:40:00,27.3,11.0,29.68,NNE,15,5.0,13.0,51,0.00,,,0.00,weatherlink.com 1.10,2013-02-01 18:40:00,
2013-02-01 13:55:00,27.9,11.0,29.69,NE,56,1.0,11.0,49,0.00,,,0.00,weatherlink.com 1.10,2013-02-01 18:55:00,
2013-02-01 14:10:00,27.9,10.0,29.68,NNE,13,2.0,15.0,48,0.00,,,0.00,weatherlink.com 1.10,2013-02-01 19:10:00,
2013-02-01 14:25:00,26.9,9.0,29.69,NNW,339,7.0,16.0,48,0.00,,,0.00,weatherlink.com 1.10,2013-02-01 19:25:00,
2013-02-01 14:40:00,26.6,9.0,29.69,NW,325,3.0,15.0,48,0.00,,,0.00,weatherlink.com 1.10,2013-02-01 19:40:00,
2013-02-01 14:55:00,26.0,9.0,29.70,SSE,150,0.0,16.0,49,0.00,,,0.00,weatherlink.com 1.10,2013-02-01 19:55:00,
2013-02-01 15:10:00,25.5,9.0,29.70,North,355,8.0,11.0,50,0.00,,,0.00,weatherlink.com 1.10,2013-02-01 20:10:00,
2013-02-01 15:25:00,24.8,9.0,29.71,ENE,69,2.0,14.0,51,0.00,,,0.00,weatherlink.com 1.10,2013-02-01 20:25:00,
2013-02-01 15:40:00,25.0,10.0,29.72,WNW,292,4.0,15.0,52,0.00,,,0.00,weatherlink.com 1.10,2013-02-01 20:40:00,
2013-02-01 15:55:00,24.9,9.0,29.72,WNW,298,10.0,13.0,50,0.00,,,0.00,weatherlink.com 1.10,2013-02-01 20:55:00,
2013-02-01 16:10:00,24.0,8.0,29.74,NNE,19,3.0,12.0,50,0.00,,,0.00,weatherlink.com 1.10,2013-02-01 21:10:00,
2013-02-01 16:25:00,23.3,8.0,29.75,NNW,328,9.0,17.0,51,0.00,,,0.00,weatherlink.com 1.10,2013-02-01 21:25:00,
2013-02-01 16:40:00,22.7,8.0,29.76,North,355,2.0,8.0,54,0.00,,,0.00,weatherlink.com 1.10,2013-02-01 21:40:00,
2013-02-01 16:55:00,22.0,8.0,29.78,NNW,330,0.0,13.0,55,0.00,,,0.00,weatherlink.com 1.10,2013-02-01 21:55:00,
2013-02-01 17:10:00,21.5,8.0,29.79,NW,308,1.0,10.0,56,0.00,,,0.00,weatherlink.com 1.10,2013-02-01 22:10:00,
2013-02-01 17:25:00,21.1,7.0,29.80,North,355,2.0,7.0,55,0.00,,,0.00,weatherlink.com 1.10,2013-02-01 22:25:00,
2013-02-01 17:40:00,20.7,7.0,29.81,NNE,13,1.0,13.0,56,0.00,,,0.00,weatherlink.com 1.10,2013-02-01 22:40:00,
2013-02-01 17:55:00,20.5,7.0,29.82,NW,320,1.0,9.0,56,0.00,,,0.00,weatherlink.com 1.10,2013-02-01 22:55:00,
2013-02-01 18:10:00,20.3,8.0,29.84,NNW,340,1.0,7.0,58,0.00,,,0.00,weatherlink.com 1.10,2013-02-01 23:10:00,
2013-02-01 18:25:00,20.0,8.0,29.85,NNE,28,0.0,2.0,59,0.00,,,0.00,weatherlink.com 1.10,2013-02-01 23:25:00,
2013-02-01 18:40:00,19.6,8.0,29.86,NNE,28,0.0,3.0,60,0.00,,,0.00,weatherlink.com 1.10,2013-02-01 23:40:00,
2013-02-01 18:55:00,19.7,9.0,29.87,NNW,345,0.0,3.0,62,0.00,,,0.00,weatherlink.com 1.10,2013-02-01 23:55:00,
2013-02-01 19:10:00,19.7,8.0,29.88,NNW,342,2.0,7.0,61,0.00,,,0.00,weatherlink.com 1.10,2013-02-02 00:10:00,
2013-02-01 19:40:00,19.7,8.0,29.89,North,350,1.0,3.0,60,0.00,,,0.00,weatherlink.com 1.10,2013-02-02 00:40:00,
2013-02-01 19:55:00,19.8,7.0,29.90,NNE,24,1.0,10.0,59,0.00,,,0.00,weatherlink.com 1.10,2013-02-02 00:55:00,
2013-02-01 20:10:00,19.8,7.0,29.91,East,99,1.0,10.0,59,0.00,,,0.00,weatherlink.com 1.10,2013-02-02 01:10:00,
2013-02-01 20:26:00,19.7,7.0,29.91,WNW,302,2.0,8.0,59,0.00,,,0.00,weatherlink.com 1.10,2013-02-02 01:26:00,
2013-02-01 20:41:00,19.7,7.0,29.91,North,351,1.0,7.0,59,0.00,,,0.00,weatherlink.com 1.10,2013-02-02 01:41:00,
2013-02-01 20:56:00,19.3,7.0,29.92,North,355,4.0,6.0,58,0.00,,,0.00,weatherlink.com 1.10,2013-02-02 01:56:00,
2013-02-01 21:11:00,19.0,7.0,29.93,NNE,22,0.0,7.0,60,0.00,,,0.00,weatherlink.com 1.10,2013-02-02 02:11:00,
2013-02-01 21:26:00,18.9,7.0,29.93,North,360,3.0,5.0,60,0.00,,,0.00,weatherlink.com 1.10,2013-02-02 02:26:00,
2013-02-01 21:43:00,18.6,7.0,29.94,NE,47,3.0,8.0,61,0.00,,,0.00,weatherlink.com 1.10,2013-02-02 02:43:00,
2013-02-01 21:56:00,18.1,7.0,29.95,North,355,3.0,6.0,63,0.00,,,0.00,weatherlink.com 1.10,2013-02-02 02:56:00,
2013-02-01 22:11:00,17.8,7.0,29.95,NNE,16,3.0,5.0,64,0.00,,,0.00,weatherlink.com 1.10,2013-02-02 03:11:00,
2013-02-01 22:56:00,17.2,7.0,29.96,North,360,5.0,12.0,65,0.00,,,0.00,weatherlink.com 1.10,2013-02-02 03:56:00,
2013-02-01 23:11:00,17.0,7.0,29.97,NNW,331,0.0,6.0,66,0.00,,,0.00,weatherlink.com 1.10,2013-02-02 04:11:00,
2013-02-01 23:26:00,16.7,7.0,29.98,NNE,25,3.0,6.0,67,0.00,,,0.00,weatherlink.com 1.10,2013-02-02 04:26:00,
2013-02-01 23:41:00,16.5,7.0,29.98,North,360,0.0,7.0,67,0.00,,,0.00,weatherlink.com 1.10,2013-02-02 04:41:00,
2013-02-01 23:56:00,16.2,7.0,29.98,NNE,30,0.0,4.0,68,0.00,,,0.00,weatherlink.com 1.10,2013-02-02 04:56:00,